Arcata, CA (95518)

7:37 PM PDT on March 24, 2017 (GMT -0700)
1 Harpst Street, Arcata, CA 95521 | | Change Station

Elev 20 ft 40.87 °N, 124.08 °W | Updated 30 seconds ago

Partly Cloudy
Partly Cloudy
55.6 °F
Feels Like 55.6 °F
N
2.7
Wind Variable Wind from South
Gusts 4.9 mph

Today
High -- | Low -- °F
--% Chance of Precip.
Yesterday
High -- | Low -- °F
Precip. -- in
Pressure 30.14 in
Visibility 10.0 miles
Clouds Few 4700 ft
Scattered Clouds 6000 ft
Mostly Cloudy 9500 ft
Dew Point 46 °F
Humidity 71%
Rainfall 0.96 in
Snow Depth Not available.
7:12 AM 7:33 PM
Waning Crescent, 11% visible
METAR KACV 250153Z AUTO 23009KT 10SM FEW047 SCT060 BKN095 12/10 A3012 RMK AO2 SLP205 T01220100
Pressure 30.14 in
Visibility 10.0 miles
Clouds Few 4700 ft
Scattered Clouds 6000 ft
Mostly Cloudy 9500 ft
Dew Point 46 °F
Humidity 71%
Rainfall 0.96 in
Snow Depth Not available.
7:12 AM 7:33 PM
Waning Crescent, 11% visible
METAR KACV 250153Z AUTO 23009KT 10SM FEW047 SCT060 BKN095 12/10 A3012 RMK AO2 SLP205 T01220100

Get Severe Weather Alerts

Thanks for signing up!

Be on the lookout for a verification email in your inbox.

You'll start receiving the daily forecast at 8 AM.

×

10-Day Weather Forecast

Almanac

Astronomy

Mar. 24, 2017 Rise Set
Actual Time
Civil Twilight
Nautical Twilight
Astronomical Twilight
Moon
Length of Visible Light
Length of Day
Tomorrow will be .
, % of the Moon is Illuminated

Today's Extremes

State Highs State Lows

Community

WunderPhotos

Upload Photos

1,962,540 photos uploaded!

WunderBlog® & News

Nearby

Air Quality

  Air Quality AQ Index Pollutant
Not available.

Snow Depth

Station Depth Elevation

Earthquake Activity

City Distance Mag. Time & Date
Minimum magnitude displayed is 2.5.

Earthquake Activity

City Distance Mag. Time & Date
Minimum magnitude displayed is 2.5.

Coastal Water Temperatures

Place Temperature

Stations

Nearby Weather Stations

Station Location Temp. Windchill Dew Point Humidity Wind Precip. Elev Updated Type
                   

Watches & Warnings

There are currently no watches in effect.